createdAt,value
2023-01-18T00:00:26.833Z,27.20
2023-01-18T00:01:26.794Z,25.00
2023-01-18T00:02:26.775Z,30.90
2023-01-18T00:03:26.790Z,29.30
2023-01-18T00:04:26.760Z,23.10
2023-01-18T00:05:26.752Z,26.40
2023-01-18T00:06:26.751Z,25.40
2023-01-18T00:07:26.740Z,25.50
2023-01-18T00:08:26.757Z,27.40
2023-01-18T00:09:26.725Z,27.80
2023-01-18T00:10:26.719Z,27.30
2023-01-18T00:11:26.711Z,27.10
2023-01-18T00:12:26.700Z,28.80
2023-01-18T00:13:26.725Z,24.60
2023-01-18T00:14:26.689Z,26.80
2023-01-18T00:15:26.680Z,31.60
2023-01-18T00:16:26.757Z,26.40
2023-01-18T00:17:26.665Z,27.10
2023-01-18T00:18:26.681Z,24.60
2023-01-18T00:19:26.650Z,27.70
2023-01-18T00:20:26.645Z,26.00
2023-01-18T00:21:26.651Z,26.80
2023-01-18T00:22:26.628Z,28.20
2023-01-18T00:23:26.651Z,27.30
2023-01-18T00:24:26.616Z,25.90
2023-01-18T00:25:26.607Z,24.20
2023-01-18T00:26:26.609Z,23.70
2023-01-18T00:27:26.587Z,21.80
2023-01-18T00:28:26.610Z,23.00
2023-01-18T00:29:26.577Z,23.70
2023-01-18T00:30:26.653Z,22.80
2023-01-18T00:31:26.633Z,23.80
2023-01-18T00:32:26.558Z,25.30
2023-01-18T00:33:26.567Z,20.60
2023-01-18T00:34:26.536Z,21.50
2023-01-18T00:35:26.539Z,21.70
2023-01-18T00:36:26.520Z,22.20
2023-01-18T00:37:26.519Z,21.60
2023-01-18T00:38:26.532Z,25.00
2023-01-18T00:39:26.498Z,20.30
2023-01-18T00:40:26.490Z,21.40
2023-01-18T00:41:26.489Z,26.40
2023-01-18T00:42:26.476Z,21.00
2023-01-18T00:43:26.497Z,22.10
2023-01-18T00:44:26.463Z,22.00
2023-01-18T00:45:26.501Z,21.10
2023-01-18T00:46:26.449Z,16.90
2023-01-18T00:47:26.440Z,21.50
2023-01-18T00:48:26.461Z,21.00
2023-01-18T00:49:26.436Z,19.80
2023-01-18T00:50:26.438Z,18.80
2023-01-18T00:51:26.416Z,19.30
2023-01-18T00:52:26.402Z,19.10
2023-01-18T00:53:26.427Z,19.10
2023-01-18T00:54:26.388Z,21.60
2023-01-18T00:55:26.380Z,19.30
2023-01-18T00:56:26.374Z,21.10
2023-01-18T00:57:26.364Z,23.90
2023-01-18T00:58:26.386Z,19.20
2023-01-18T00:59:27.350Z,18.50
2023-01-18T01:00:26.351Z,18.10
2023-01-18T01:01:26.420Z,18.70
2023-01-18T01:02:26.350Z,19.00
2023-01-18T01:03:26.351Z,18.70
2023-01-18T01:04:27.319Z,17.50
2023-01-18T01:05:26.309Z,20.30
2023-01-18T01:06:26.303Z,20.80
2023-01-18T01:07:26.306Z,17.70
2023-01-18T01:08:26.289Z,19.20
2023-01-18T01:09:26.327Z,23.10
2023-01-18T01:10:26.269Z,20.70
2023-01-18T01:11:26.272Z,22.10
2023-01-18T01:12:26.262Z,19.70
2023-01-18T01:13:26.248Z,19.00
2023-01-18T01:14:26.269Z,17.00
2023-01-18T01:15:26.241Z,18.30
2023-01-18T01:16:26.240Z,16.70
2023-01-18T01:17:26.218Z,17.20
2023-01-18T01:18:26.214Z,19.10
2023-01-18T01:19:26.237Z,18.30
2023-01-18T01:20:26.206Z,21.00
2023-01-18T01:21:26.187Z,21.80
2023-01-18T01:22:26.186Z,17.30
2023-01-18T01:23:26.176Z,19.60
2023-01-18T01:24:26.194Z,17.70
2023-01-18T01:25:26.174Z,19.60
2023-01-18T01:26:26.152Z,16.00
2023-01-18T01:27:26.155Z,17.50
2023-01-18T01:28:26.143Z,16.70
2023-01-18T01:29:26.157Z,19.30
2023-01-18T01:30:26.180Z,18.50
2023-01-18T01:31:26.122Z,17.40
2023-01-18T01:32:26.124Z,19.60
2023-01-18T01:33:26.100Z,18.90
2023-01-18T01:34:26.121Z,20.30
2023-01-18T01:35:26.100Z,23.00
2023-01-18T01:36:26.097Z,19.20
2023-01-18T01:37:26.071Z,18.50
2023-01-18T01:38:26.069Z,19.90
2023-01-18T01:39:26.102Z,21.80
2023-01-18T01:40:26.046Z,20.80
2023-01-18T01:41:26.038Z,19.30
2023-01-18T01:42:26.029Z,18.20
2023-01-18T01:43:26.029Z,17.20
2023-01-18T01:44:26.046Z,16.60
2023-01-18T01:45:26.011Z,19.50
2023-01-18T01:46:26.006Z,18.40
2023-01-18T01:47:25.999Z,18.20
2023-01-18T01:48:25.989Z,19.20
2023-01-18T01:49:26.002Z,22.30
2023-01-18T01:50:25.989Z,20.10
2023-01-18T01:51:25.970Z,15.90
2023-01-18T01:52:26.024Z,21.80
2023-01-18T01:53:25.955Z,20.20
2023-01-18T01:54:25.973Z,23.50
2023-01-18T01:55:25.937Z,19.80
2023-01-18T01:56:25.932Z,16.00
2023-01-18T01:57:25.922Z,17.90
2023-01-18T01:58:25.912Z,16.50
2023-01-18T01:59:25.929Z,16.80
2023-01-18T02:00:25.917Z,16.90
2023-01-18T02:01:25.963Z,18.00
2023-01-18T02:02:25.982Z,21.50
2023-01-18T02:03:25.877Z,17.20
2023-01-18T02:04:25.898Z,20.40
2023-01-18T02:05:25.861Z,20.40
2023-01-18T02:06:25.854Z,19.70
2023-01-18T02:07:25.847Z,15.30
2023-01-18T02:08:25.850Z,18.90
2023-01-18T02:09:25.855Z,19.80
2023-01-18T02:10:25.830Z,17.60
2023-01-18T02:11:25.884Z,17.30
2023-01-18T02:12:25.813Z,19.20
2023-01-18T02:13:25.807Z,19.70
2023-01-18T02:14:25.828Z,19.20
2023-01-18T02:15:25.791Z,18.90
2023-01-18T02:16:25.803Z,16.90
2023-01-18T02:17:25.776Z,19.10
2023-01-18T02:18:25.772Z,20.60
2023-01-18T02:19:25.792Z,20.20
2023-01-18T02:20:25.754Z,20.20
2023-01-18T02:21:25.747Z,17.00
2023-01-18T02:22:25.744Z,19.20
2023-01-18T02:23:25.732Z,21.00
2023-01-18T02:24:25.753Z,16.90
2023-01-18T02:25:25.725Z,19.10
2023-01-18T02:26:25.705Z,19.80
2023-01-18T02:27:25.765Z,18.80
2023-01-18T02:28:25.696Z,18.10
2023-01-18T02:29:25.708Z,18.40
2023-01-18T02:30:25.681Z,17.90
2023-01-18T02:31:25.671Z,18.10
2023-01-18T02:32:25.660Z,21.00
2023-01-18T02:33:25.653Z,17.90
2023-01-18T02:34:25.690Z,20.00
2023-01-18T02:35:25.648Z,16.90
2023-01-18T02:36:25.634Z,19.10
2023-01-18T02:37:25.631Z,19.20
2023-01-18T02:38:25.614Z,17.00
2023-01-18T02:39:25.636Z,20.20
2023-01-18T02:40:25.598Z,15.80
2023-01-18T02:41:25.604Z,18.60
2023-01-18T02:42:25.588Z,21.10
2023-01-18T02:43:25.583Z,21.70
2023-01-18T02:44:25.573Z,21.90
2023-01-18T02:45:25.587Z,19.20
2023-01-18T02:46:25.611Z,17.90
2023-01-18T02:47:25.552Z,19.30
2023-01-18T02:48:25.535Z,15.40
2023-01-18T02:49:26.537Z,17.00
2023-01-18T02:50:25.547Z,18.00
2023-01-18T02:51:26.519Z,14.60
2023-01-18T02:52:25.510Z,16.80
2023-01-18T02:53:25.517Z,14.70
2023-01-18T02:54:25.496Z,16.20
2023-01-18T02:55:25.510Z,15.60
2023-01-18T02:56:25.485Z,18.00
2023-01-18T02:57:25.474Z,16.40
2023-01-18T02:58:25.478Z,18.20
2023-01-18T02:59:25.461Z,14.90
2023-01-18T03:00:25.482Z,18.90
2023-01-18T03:01:25.497Z,15.10
2023-01-18T03:02:25.477Z,17.80
2023-01-18T03:03:25.428Z,15.00
2023-01-18T03:04:25.431Z,17.60
2023-01-18T03:05:25.437Z,17.00
2023-01-18T03:06:25.402Z,14.50
2023-01-18T03:07:25.399Z,15.80
2023-01-18T03:08:25.409Z,15.00
2023-01-18T03:09:25.391Z,20.00
2023-01-18T03:10:25.399Z,13.60
2023-01-18T03:11:25.366Z,15.70
2023-01-18T03:12:25.369Z,16.20
2023-01-18T03:13:25.365Z,15.50
2023-01-18T03:14:25.345Z,14.80
2023-01-18T03:15:25.372Z,18.40
2023-01-18T03:16:25.329Z,17.80
2023-01-18T03:17:25.334Z,17.80
2023-01-18T03:18:25.316Z,18.90
2023-01-18T03:19:25.309Z,15.90
2023-01-18T03:20:25.573Z,14.00
2023-01-18T03:21:26.310Z,16.40
2023-01-18T03:22:25.291Z,18.30
2023-01-18T03:23:25.284Z,16.20
2023-01-18T03:24:25.264Z,19.80
2023-01-18T03:25:25.303Z,16.40
2023-01-18T03:26:25.281Z,15.90
2023-01-18T03:27:25.247Z,19.50
2023-01-18T03:28:25.235Z,19.20
2023-01-18T03:29:25.233Z,16.30
2023-01-18T03:30:25.265Z,15.70
2023-01-18T03:31:25.219Z,16.10
2023-01-18T03:32:25.224Z,16.50
2023-01-18T03:33:25.204Z,15.80
2023-01-18T03:34:25.196Z,14.90
2023-01-18T03:35:25.227Z,16.40
2023-01-18T03:36:25.175Z,16.40
2023-01-18T03:37:25.181Z,16.60
2023-01-18T03:38:25.164Z,13.90
2023-01-18T03:39:25.162Z,17.50
2023-01-18T03:40:25.167Z,13.10
2023-01-18T03:41:25.167Z,12.40
2023-01-18T03:42:25.138Z,15.30
2023-01-18T03:43:25.131Z,15.80
2023-01-18T03:44:25.121Z,13.80
2023-01-18T03:45:25.123Z,14.90
2023-01-18T03:46:25.178Z,15.40
2023-01-18T03:47:25.102Z,14.10
2023-01-18T03:48:25.095Z,13.40
2023-01-18T03:49:25.083Z,15.10
2023-01-18T03:50:25.081Z,13.30
2023-01-18T03:51:25.095Z,14.70
2023-01-18T03:52:25.078Z,18.80
2023-01-18T03:53:25.062Z,14.20
2023-01-18T03:54:25.052Z,13.90
2023-01-18T03:55:25.047Z,15.10
2023-01-18T03:56:25.067Z,14.00
2023-01-18T03:57:25.026Z,13.50
2023-01-18T03:58:25.019Z,14.60
2023-01-18T03:59:26.011Z,14.30
2023-01-18T04:00:25.017Z,17.80
2023-01-18T04:01:25.088Z,12.80
2023-01-18T04:02:25.060Z,16.50
2023-01-18T04:03:24.980Z,17.40
2023-01-18T04:04:24.988Z,15.90
2023-01-18T04:05:24.973Z,14.90
2023-01-18T04:06:24.990Z,13.10
2023-01-18T04:07:24.955Z,14.30
2023-01-18T04:08:24.948Z,16.90
2023-01-18T04:09:24.940Z,15.10
2023-01-18T04:10:25.934Z,12.70
2023-01-18T04:11:24.952Z,17.00
2023-01-18T04:12:24.922Z,12.80
2023-01-18T04:13:24.918Z,17.60
2023-01-18T04:14:24.905Z,15.40
2023-01-18T04:15:24.896Z,17.00
2023-01-18T04:16:24.919Z,15.10
2023-01-18T04:17:24.888Z,14.40
2023-01-18T04:18:24.881Z,15.60
2023-01-18T04:19:24.877Z,14.00
2023-01-18T04:20:24.864Z,16.40
2023-01-18T04:21:24.879Z,16.80
2023-01-18T04:22:24.851Z,16.10
2023-01-18T04:23:24.839Z,14.20
2023-01-18T04:24:24.828Z,15.50
2023-01-18T04:25:25.824Z,15.00
2023-01-18T04:26:24.844Z,18.60
2023-01-18T04:27:24.803Z,13.80
2023-01-18T04:28:24.801Z,14.60
2023-01-18T04:29:24.794Z,14.60
2023-01-18T04:30:24.782Z,14.60
2023-01-18T04:31:24.863Z,14.40
2023-01-18T04:32:24.767Z,16.50
2023-01-18T04:33:24.762Z,12.10
2023-01-18T04:34:24.753Z,15.00
2023-01-18T04:35:24.749Z,14.30
2023-01-18T04:36:24.766Z,15.80
2023-01-18T04:37:24.735Z,16.60
2023-01-18T04:38:24.729Z,19.90
2023-01-18T04:39:24.726Z,22.00
2023-01-18T04:40:24.709Z,21.90
2023-01-18T04:41:24.729Z,26.40
2023-01-18T04:42:24.698Z,23.40
2023-01-18T04:43:24.696Z,19.70
2023-01-18T04:44:24.688Z,19.80
2023-01-18T04:45:24.687Z,23.20
2023-01-18T04:46:24.753Z,16.40
2023-01-18T04:47:24.662Z,21.30
2023-01-18T04:48:24.657Z,14.20
2023-01-18T04:49:24.679Z,13.70
2023-01-18T04:50:24.643Z,15.60
2023-01-18T04:51:24.684Z,16.20
2023-01-18T04:52:24.631Z,15.50
2023-01-18T04:53:24.621Z,15.70
2023-01-18T04:54:24.624Z,17.70
2023-01-18T04:55:24.606Z,17.20
2023-01-18T04:56:24.672Z,17.10
2023-01-18T04:57:24.587Z,21.10
2023-01-18T04:58:24.610Z,16.90
2023-01-18T04:59:24.588Z,18.40
2023-01-18T05:00:24.587Z,18.70
2023-01-18T05:01:24.717Z,15.30
2023-01-18T05:02:24.581Z,16.10
2023-01-18T05:03:24.565Z,17.20
2023-01-18T05:04:24.550Z,17.40
2023-01-18T05:05:26.343Z,15.20
2023-01-18T05:06:24.576Z,14.00
2023-01-18T05:07:24.523Z,17.40
2023-01-18T05:08:24.526Z,17.00
2023-01-18T05:09:24.507Z,18.00
2023-01-18T05:10:24.504Z,15.50
2023-01-18T05:11:24.537Z,28.70
2023-01-18T05:12:24.516Z,64.40
2023-01-18T05:13:24.478Z,56.20
2023-01-18T05:14:24.481Z,34.20
2023-01-18T05:15:24.477Z,31.20
2023-01-18T05:16:24.550Z,35.30
2023-01-18T05:17:24.460Z,39.40
2023-01-18T05:18:24.452Z,33.70
2023-01-18T05:19:24.437Z,25.50
2023-01-18T05:20:24.434Z,20.50
2023-01-18T05:21:24.433Z,14.00
2023-01-18T05:22:24.439Z,17.10
2023-01-18T05:23:24.413Z,15.40
2023-01-18T05:24:24.421Z,13.90
2023-01-18T05:25:24.395Z,13.30
2023-01-18T05:26:24.414Z,18.00
2023-01-18T05:27:24.411Z,16.00
2023-01-18T05:28:24.379Z,13.80
2023-01-18T05:29:24.364Z,16.70
2023-01-18T05:30:24.375Z,14.80
2023-01-18T05:31:24.358Z,14.00
2023-01-18T05:32:24.366Z,15.50
2023-01-18T05:33:24.363Z,18.80
2023-01-18T05:34:24.321Z,13.60
2023-01-18T05:35:24.332Z,16.30
2023-01-18T05:36:24.309Z,14.90
2023-01-18T05:37:24.327Z,16.20
2023-01-18T05:38:24.324Z,17.30
2023-01-18T05:39:24.286Z,18.20
2023-01-18T05:40:24.291Z,15.70
2023-01-18T05:41:24.287Z,17.50
2023-01-18T05:42:24.295Z,14.10
2023-01-18T05:43:24.269Z,15.80
2023-01-18T05:44:24.254Z,16.30
2023-01-18T05:45:24.246Z,17.20
2023-01-18T05:46:24.246Z,57.30
2023-01-18T05:47:24.262Z,81.70
2023-01-18T05:48:24.223Z,93.90
2023-01-18T05:49:24.253Z,90.20
2023-01-18T05:50:24.212Z,65.30
2023-01-18T05:51:24.203Z,47.80
2023-01-18T05:52:24.223Z,29.40
2023-01-18T05:53:24.189Z,23.40
2023-01-18T05:54:24.206Z,22.30
2023-01-18T05:55:24.182Z,18.30
2023-01-18T05:56:24.166Z,19.80
2023-01-18T05:57:24.183Z,19.00
2023-01-18T05:58:24.152Z,20.40
2023-01-18T05:59:24.187Z,19.30
2023-01-18T06:00:24.137Z,16.80
2023-01-18T06:01:24.181Z,15.70
2023-01-18T06:02:24.154Z,16.10
2023-01-18T06:03:24.113Z,13.40
2023-01-18T06:04:24.157Z,15.00
2023-01-18T06:05:24.104Z,18.10
2023-01-18T06:06:24.099Z,15.10
2023-01-18T06:07:24.111Z,18.10
2023-01-18T06:08:24.097Z,12.40
2023-01-18T06:09:24.072Z,15.20
2023-01-18T06:10:24.079Z,13.50
2023-01-18T06:11:24.065Z,17.10
2023-01-18T06:12:24.098Z,13.80
2023-01-18T06:13:24.053Z,16.60
2023-01-18T06:14:24.041Z,17.60
2023-01-18T06:15:24.032Z,13.60
2023-01-18T06:16:24.063Z,15.60
2023-01-18T06:17:24.036Z,16.50
2023-01-18T06:18:24.034Z,16.80
2023-01-18T06:19:24.024Z,17.60
2023-01-18T06:20:24.016Z,17.10
2023-01-18T06:21:24.020Z,13.90
2023-01-18T06:22:23.984Z,14.30
2023-01-18T06:23:24.026Z,14.10
2023-01-18T06:24:23.968Z,19.60
2023-01-18T06:25:23.958Z,17.90
2023-01-18T06:26:23.984Z,17.30
2023-01-18T06:27:23.951Z,20.00
2023-01-18T06:28:23.974Z,23.20
2023-01-18T06:29:23.938Z,27.60
2023-01-18T06:30:23.925Z,50.60
2023-01-18T06:31:24.036Z,44.50
2023-01-18T06:32:23.907Z,41.00
2023-01-18T06:33:23.927Z,41.40
2023-01-18T06:34:23.895Z,43.30
2023-01-18T06:35:23.903Z,37.60
2023-01-18T06:36:23.881Z,25.00
2023-01-18T06:37:23.874Z,26.90
2023-01-18T06:38:23.903Z,29.10
2023-01-18T06:39:23.857Z,17.80
2023-01-18T06:40:23.865Z,17.60
2023-01-18T06:41:23.863Z,15.10
2023-01-18T06:42:23.834Z,13.10
2023-01-18T06:43:23.854Z,15.30
2023-01-18T06:44:23.831Z,13.40
2023-01-18T06:45:23.817Z,14.00
2023-01-18T06:46:23.812Z,13.30
2023-01-18T06:47:23.803Z,14.60
2023-01-18T06:48:23.819Z,13.80
2023-01-18T06:49:23.797Z,12.40
2023-01-18T06:50:23.773Z,29.30
2023-01-18T06:51:23.765Z,53.50
2023-01-18T06:52:23.766Z,52.90
2023-01-18T06:53:23.776Z,44.90
2023-01-18T06:54:23.751Z,47.70
2023-01-18T06:55:23.736Z,41.80
2023-01-18T06:56:23.732Z,34.80
2023-01-18T06:57:23.729Z,36.10
2023-01-18T06:58:23.739Z,20.00
2023-01-18T06:59:23.704Z,20.20
2023-01-18T07:00:23.700Z,18.20
2023-01-18T07:01:23.837Z,17.60
2023-01-18T07:02:23.701Z,18.10
2023-01-18T07:03:23.711Z,19.20
2023-01-18T07:04:23.725Z,19.10
2023-01-18T07:05:23.661Z,18.40
2023-01-18T07:06:23.663Z,18.40
2023-01-18T07:07:23.654Z,18.30
2023-01-18T07:08:23.681Z,18.00
2023-01-18T07:09:23.637Z,20.70
2023-01-18T07:10:23.634Z,28.50
2023-01-18T07:11:23.625Z,21.70
2023-01-18T07:12:23.611Z,21.60
2023-01-18T07:13:25.267Z,23.20
2023-01-18T07:14:23.608Z,22.00
2023-01-18T07:15:23.606Z,20.20
2023-01-18T07:16:23.618Z,18.00
2023-01-18T07:17:23.585Z,16.10
2023-01-18T07:18:23.577Z,18.60
2023-01-18T07:19:23.599Z,20.90
2023-01-18T07:20:23.561Z,19.90
2023-01-18T07:21:23.548Z,19.50
2023-01-18T07:22:23.547Z,16.70
2023-01-18T07:23:23.534Z,14.30
2023-01-18T07:24:23.555Z,14.10
2023-01-18T07:25:23.524Z,20.20
2023-01-18T07:26:23.512Z,18.50
2023-01-18T07:27:23.515Z,18.50
2023-01-18T07:28:23.500Z,22.20
2023-01-18T07:29:23.534Z,20.10
2023-01-18T07:30:23.487Z,19.40
2023-01-18T07:31:23.482Z,19.70
2023-01-18T07:32:23.478Z,16.80
2023-01-18T07:33:23.461Z,22.80
2023-01-18T07:34:23.474Z,19.70
2023-01-18T07:35:24.470Z,17.60
2023-01-18T07:36:23.448Z,17.60
2023-01-18T07:37:23.448Z,21.40
2023-01-18T07:38:23.436Z,17.10
2023-01-18T07:39:23.451Z,21.30
2023-01-18T07:40:23.444Z,17.40
2023-01-18T07:41:23.420Z,18.30
2023-01-18T07:42:23.413Z,17.00
2023-01-18T07:43:23.400Z,16.50
2023-01-18T07:44:23.413Z,14.30
2023-01-18T07:45:23.386Z,13.60
2023-01-18T07:46:23.403Z,15.40
2023-01-18T07:47:23.433Z,12.00
2023-01-18T07:48:23.365Z,13.40
2023-01-18T07:49:23.377Z,15.60
2023-01-18T07:50:23.350Z,13.20
2023-01-18T07:51:23.340Z,11.70
2023-01-18T07:52:23.350Z,13.50
2023-01-18T07:53:23.327Z,16.50
2023-01-18T07:54:23.351Z,13.40
2023-01-18T07:55:23.310Z,12.60
2023-01-18T07:56:23.301Z,12.60
2023-01-18T07:57:23.297Z,14.60
2023-01-18T07:58:23.290Z,14.20
2023-01-18T07:59:23.302Z,14.90
2023-01-18T08:00:23.282Z,13.70
2023-01-18T08:01:23.419Z,13.50
2023-01-18T08:02:23.306Z,10.70
2023-01-18T08:03:23.257Z,21.40
2023-01-18T08:04:23.274Z,15.70
2023-01-18T08:05:23.235Z,17.50
2023-01-18T08:06:23.231Z,15.70
2023-01-18T08:07:23.221Z,17.20
2023-01-18T08:08:23.221Z,20.20
2023-01-18T08:09:23.237Z,17.20
2023-01-18T08:10:23.212Z,16.50
2023-01-18T08:11:23.187Z,14.40
2023-01-18T08:12:23.185Z,17.70
2023-01-18T08:13:23.176Z,16.10
2023-01-18T08:14:23.171Z,14.60
2023-01-18T08:15:23.193Z,15.30
2023-01-18T08:16:23.156Z,16.10
2023-01-18T08:17:23.149Z,13.40
2023-01-18T08:18:23.141Z,12.80
2023-01-18T08:19:23.136Z,14.70
2023-01-18T08:20:23.153Z,13.80
2023-01-18T08:21:23.116Z,16.90
2023-01-18T08:22:23.113Z,13.60
2023-01-18T08:23:23.103Z,17.50
2023-01-18T08:24:23.102Z,14.40
2023-01-18T08:25:23.111Z,15.00
2023-01-18T08:26:23.079Z,14.60
2023-01-18T08:27:23.068Z,17.30
2023-01-18T08:28:23.061Z,18.80
2023-01-18T08:29:23.052Z,17.30
2023-01-18T08:30:23.070Z,19.70
2023-01-18T08:31:23.063Z,17.50
2023-01-18T08:32:23.093Z,20.90
2023-01-18T08:33:23.026Z,17.90
2023-01-18T08:34:23.048Z,16.80
2023-01-18T08:35:23.836Z,16.10
2023-01-18T08:36:23.996Z,17.40
2023-01-18T08:37:22.993Z,17.30
2023-01-18T08:38:22.984Z,18.70
2023-01-18T08:39:22.985Z,16.60
2023-01-18T08:40:22.997Z,16.90
2023-01-18T08:41:22.961Z,16.90
2023-01-18T08:42:22.957Z,19.30
2023-01-18T08:43:22.945Z,15.90
2023-01-18T08:44:22.945Z,16.40
2023-01-18T08:45:22.958Z,17.10
2023-01-18T08:46:22.977Z,18.10
2023-01-18T08:47:22.933Z,17.90
2023-01-18T08:48:22.928Z,16.40
2023-01-18T08:49:22.918Z,12.70
2023-01-18T08:50:22.927Z,15.50
2023-01-18T08:51:23.074Z,13.70
2023-01-18T08:52:22.886Z,16.10
2023-01-18T08:53:22.875Z,13.60
2023-01-18T08:54:22.869Z,14.00
2023-01-18T08:55:22.889Z,17.10
2023-01-18T08:56:22.863Z,13.80
2023-01-18T08:57:22.848Z,12.90
2023-01-18T08:58:22.844Z,14.10
2023-01-18T08:59:22.896Z,15.50
2023-01-18T09:00:22.848Z,14.70
2023-01-18T09:01:22.911Z,21.00
2023-01-18T09:02:22.846Z,11.60
2023-01-18T09:03:22.807Z,15.00
2023-01-18T09:04:22.811Z,14.50
2023-01-18T09:05:22.822Z,12.90
2023-01-18T09:06:22.790Z,12.50
2023-01-18T09:07:22.777Z,9.50
2023-01-18T09:08:22.781Z,12.60
2023-01-18T09:09:22.776Z,10.00
2023-01-18T09:10:22.794Z,11.70
2023-01-18T09:11:22.745Z,12.60
2023-01-18T09:12:22.732Z,12.30
2023-01-18T09:13:22.752Z,10.00
2023-01-18T09:14:22.722Z,13.90
2023-01-18T09:15:22.738Z,8.80
2023-01-18T09:16:22.747Z,10.00
2023-01-18T09:17:22.697Z,10.30
2023-01-18T09:18:22.692Z,10.00
2023-01-18T09:19:22.697Z,8.80
2023-01-18T09:20:22.700Z,8.50
2023-01-18T09:21:22.675Z,10.40
2023-01-18T09:22:22.659Z,7.60
2023-01-18T09:23:22.647Z,6.90
2023-01-18T09:24:22.647Z,8.70
2023-01-18T09:25:22.668Z,12.50
2023-01-18T09:26:22.623Z,9.80
2023-01-18T09:27:22.626Z,8.90
2023-01-18T09:28:22.626Z,8.50
2023-01-18T09:29:22.610Z,8.70
2023-01-18T09:30:22.636Z,10.50
2023-01-18T09:31:22.706Z,7.40
2023-01-18T09:32:22.611Z,8.60
2023-01-18T09:33:22.575Z,8.50
2023-01-18T09:34:22.564Z,8.60
2023-01-18T09:35:22.583Z,9.20
2023-01-18T09:36:22.546Z,11.10
2023-01-18T09:37:22.571Z,9.80
2023-01-18T09:38:22.536Z,9.40
2023-01-18T09:39:22.542Z,8.80
2023-01-18T09:40:22.540Z,9.60
2023-01-18T09:41:22.513Z,9.10
2023-01-18T09:42:22.511Z,10.30
2023-01-18T09:43:22.503Z,9.20
2023-01-18T09:44:22.484Z,10.80
2023-01-18T09:45:22.512Z,10.20
2023-01-18T09:46:22.614Z,7.50
2023-01-18T09:47:22.469Z,10.50
2023-01-18T09:48:22.458Z,9.00
2023-01-18T09:49:22.463Z,9.60
2023-01-18T09:50:22.470Z,10.10
2023-01-18T09:51:22.452Z,8.20
2023-01-18T09:52:22.433Z,8.80
2023-01-18T09:53:22.423Z,10.90
2023-01-18T09:54:22.417Z,6.70
2023-01-18T09:55:22.435Z,8.30
2023-01-18T09:56:22.404Z,8.60
2023-01-18T09:57:22.404Z,7.60
2023-01-18T09:58:22.384Z,7.40
2023-01-18T09:59:22.386Z,7.60
2023-01-18T10:00:22.398Z,7.00
2023-01-18T10:01:22.485Z,9.10
2023-01-18T10:02:22.866Z,8.30
2023-01-18T10:03:22.363Z,8.00
2023-01-18T10:04:22.342Z,11.40
2023-01-18T10:05:22.369Z,9.50
2023-01-18T10:06:22.331Z,8.60
2023-01-18T10:07:22.318Z,7.90
2023-01-18T10:08:22.313Z,11.10
2023-01-18T10:09:22.313Z,8.30
2023-01-18T10:10:22.296Z,9.50
2023-01-18T10:11:22.329Z,11.00
2023-01-18T10:12:22.282Z,12.30
2023-01-18T10:13:22.283Z,10.10
2023-01-18T10:14:22.264Z,10.50
2023-01-18T10:15:22.321Z,9.20
2023-01-18T10:16:22.306Z,10.50
2023-01-18T10:17:22.246Z,7.00
2023-01-18T10:18:22.238Z,10.40
2023-01-18T10:19:22.230Z,9.80
2023-01-18T10:20:22.226Z,7.10
2023-01-18T10:21:22.246Z,7.60
2023-01-18T10:22:22.208Z,11.80
2023-01-18T10:23:22.202Z,9.80
2023-01-18T10:24:22.193Z,11.30
2023-01-18T10:25:22.219Z,9.00
2023-01-18T10:26:22.200Z,10.10
2023-01-18T10:27:22.168Z,8.50
2023-01-18T10:28:22.159Z,8.40
2023-01-18T10:29:22.150Z,8.80
2023-01-18T10:30:22.155Z,7.90
2023-01-18T10:31:22.213Z,10.60
2023-01-18T10:32:22.135Z,10.20
2023-01-18T10:33:22.131Z,6.40
2023-01-18T10:34:22.117Z,7.10
2023-01-18T10:35:22.106Z,7.50
2023-01-18T10:36:22.123Z,7.20
2023-01-18T10:37:22.098Z,8.60
2023-01-18T10:38:22.101Z,9.00
2023-01-18T10:39:22.078Z,7.90
2023-01-18T10:40:22.087Z,8.50
2023-01-18T10:41:22.103Z,6.60
2023-01-18T10:42:22.084Z,9.70
2023-01-18T10:43:22.054Z,11.10
2023-01-18T10:44:22.051Z,8.50
2023-01-18T10:45:22.259Z,8.20
2023-01-18T10:46:22.044Z,8.10
2023-01-18T10:47:22.027Z,8.60
2023-01-18T10:48:22.032Z,8.30
2023-01-18T10:49:22.004Z,8.30
2023-01-18T10:50:22.175Z,10.20
2023-01-18T10:51:22.009Z,8.80
2023-01-18T10:52:21.970Z,8.60
2023-01-18T10:53:21.970Z,8.50
2023-01-18T10:54:21.955Z,8.00
2023-01-18T10:55:21.953Z,9.90
2023-01-18T10:56:21.969Z,10.10
2023-01-18T10:57:21.932Z,8.90
2023-01-18T10:58:21.927Z,8.40
2023-01-18T10:59:22.010Z,7.00
2023-01-18T11:00:22.009Z,9.00
2023-01-18T11:01:21.975Z,8.50
2023-01-18T11:02:22.018Z,8.20
2023-01-18T11:03:21.889Z,7.70
2023-01-18T11:04:21.887Z,7.00
2023-01-18T11:05:21.870Z,8.20
2023-01-18T11:06:21.865Z,8.60
2023-01-18T11:07:21.885Z,7.60
2023-01-18T11:08:21.865Z,8.80
2023-01-18T11:09:21.837Z,6.10
2023-01-18T11:10:21.828Z,5.90
2023-01-18T11:11:21.824Z,6.90
2023-01-18T11:12:21.846Z,7.00
2023-01-18T11:13:21.810Z,8.70
2023-01-18T11:14:21.803Z,7.40
2023-01-18T11:15:21.797Z,9.30
2023-01-18T11:16:21.804Z,9.70
2023-01-18T11:17:21.813Z,8.30
2023-01-18T11:18:21.772Z,5.40
2023-01-18T11:19:21.767Z,4.90
2023-01-18T11:20:21.764Z,6.00
2023-01-18T11:21:21.755Z,6.10
2023-01-18T11:22:21.768Z,3.90
2023-01-18T11:23:21.730Z,3.80
2023-01-18T11:24:21.728Z,6.50
2023-01-18T11:25:21.725Z,8.40
2023-01-18T11:26:21.714Z,5.30
2023-01-18T11:27:21.736Z,4.40
2023-01-18T11:28:21.702Z,8.10
2023-01-18T11:29:21.699Z,5.40
2023-01-18T11:30:21.684Z,4.40
2023-01-18T11:31:22.301Z,4.30
2023-01-18T11:32:22.698Z,5.00
2023-01-18T11:33:21.663Z,4.50
2023-01-18T11:34:21.658Z,6.30
2023-01-18T11:35:21.647Z,4.00
2023-01-18T11:36:21.656Z,6.00
2023-01-18T11:37:21.658Z,5.20
2023-01-18T11:38:21.639Z,7.30
2023-01-18T11:39:21.622Z,6.10
2023-01-18T11:40:21.610Z,6.20
2023-01-18T11:41:21.609Z,5.60
2023-01-18T11:42:21.630Z,6.30
2023-01-18T11:43:21.614Z,4.30
2023-01-18T11:44:21.587Z,5.80
2023-01-18T11:45:22.573Z,4.30
2023-01-18T11:46:21.572Z,7.10
2023-01-18T11:47:21.696Z,9.90
2023-01-18T11:48:21.589Z,5.80
2023-01-18T11:49:21.562Z,6.90
2023-01-18T11:50:22.687Z,8.50
2023-01-18T11:51:22.533Z,6.90
2023-01-18T11:52:21.529Z,7.00
2023-01-18T11:53:21.550Z,7.10
2023-01-18T11:54:21.512Z,7.20
2023-01-18T11:55:21.504Z,6.60
2023-01-18T11:56:21.512Z,6.40
2023-01-18T11:57:21.499Z,10.10
2023-01-18T11:58:21.512Z,15.70
2023-01-18T11:59:21.477Z,12.10
2023-01-18T12:00:21.468Z,10.90
2023-01-18T12:01:21.604Z,10.30
2023-01-18T12:02:21.484Z,10.20
2023-01-18T12:03:21.526Z,8.00
2023-01-18T12:04:21.437Z,11.00
2023-01-18T12:05:21.430Z,7.80
2023-01-18T12:06:21.424Z,10.80
2023-01-18T12:07:21.429Z,10.40
2023-01-18T12:08:21.433Z,14.00
2023-01-18T12:09:21.411Z,9.60
2023-01-18T12:10:21.403Z,11.50
2023-01-18T12:11:21.383Z,9.70
2023-01-18T12:12:21.393Z,12.30
2023-01-18T12:13:21.403Z,8.70
2023-01-18T12:14:21.390Z,11.00
2023-01-18T12:15:21.356Z,11.10
2023-01-18T12:16:21.391Z,8.70
2023-01-18T12:17:21.352Z,11.10
2023-01-18T12:18:21.368Z,12.20
2023-01-18T12:19:21.326Z,10.00
2023-01-18T12:20:21.324Z,8.30
2023-01-18T12:21:21.321Z,13.10
2023-01-18T12:22:21.329Z,12.30
2023-01-18T12:23:21.330Z,12.30
2023-01-18T12:24:22.287Z,9.20
2023-01-18T12:25:21.280Z,11.30
2023-01-18T12:26:21.275Z,9.70
2023-01-18T12:27:21.263Z,11.00
2023-01-18T12:28:21.275Z,9.20
2023-01-18T12:29:22.261Z,12.90
2023-01-18T12:30:21.250Z,10.50
2023-01-18T12:31:21.231Z,8.00
2023-01-18T12:32:21.223Z,9.00
2023-01-18T12:33:31.249Z,8.60
2023-01-18T12:34:23.284Z,11.20
2023-01-18T12:35:24.640Z,9.30
2023-01-18T12:36:22.197Z,11.30
2023-01-18T12:37:21.196Z,10.00
2023-01-18T12:38:21.218Z,7.40
2023-01-18T12:39:21.174Z,7.50
2023-01-18T12:40:21.167Z,8.70
2023-01-18T12:41:21.157Z,8.70
2023-01-18T12:42:21.149Z,8.60
2023-01-18T12:43:21.172Z,9.90
2023-01-18T12:44:21.130Z,10.50
2023-01-18T12:45:21.123Z,8.70
2023-01-18T12:46:21.154Z,10.60
2023-01-18T12:47:21.103Z,6.70
2023-01-18T12:48:21.165Z,7.80
2023-01-18T12:49:21.115Z,8.50
2023-01-18T12:50:23.101Z,10.00
2023-01-18T12:51:22.072Z,10.80
2023-01-18T12:52:21.089Z,11.00
2023-01-18T12:53:21.066Z,10.60
2023-01-18T12:54:21.091Z,9.30
2023-01-18T12:55:21.069Z,11.30
2023-01-18T12:56:21.037Z,9.90
2023-01-18T12:57:21.045Z,14.80